createdAt,value
2019-04-06T00:02:28.148Z,18.75
2019-04-06T00:04:54.332Z,18.52
2019-04-06T00:07:20.522Z,18.32
2019-04-06T00:09:46.720Z,22.55
2019-04-06T00:12:12.897Z,20.92
2019-04-06T00:14:39.067Z,21.25
2019-04-06T00:17:05.288Z,19.87
2019-04-06T00:19:31.587Z,20.90
2019-04-06T00:21:57.810Z,20.52
2019-04-06T00:24:24.005Z,21.05
2019-04-06T00:26:50.205Z,22.02
2019-04-06T00:29:16.385Z,21.23
2019-04-06T00:31:50.329Z,21.33
2019-04-06T00:34:16.700Z,24.18
2019-04-06T00:36:42.854Z,22.32
2019-04-06T00:39:09.082Z,21.23
2019-04-06T00:41:35.412Z,20.97
2019-04-06T00:44:01.564Z,22.45
2019-04-06T00:46:27.775Z,21.65
2019-04-06T00:48:54.003Z,20.40
2019-04-06T00:51:20.231Z,21.62
2019-04-06T00:53:46.392Z,21.25
2019-04-06T00:56:12.581Z,21.52
2019-04-06T00:58:39.019Z,19.62
2019-04-06T01:01:05.204Z,21.65
2019-04-06T01:03:31.509Z,21.82
2019-04-06T01:05:57.668Z,19.75
2019-04-06T01:08:23.861Z,21.12
2019-04-06T01:10:50.051Z,20.37
2019-04-06T01:13:16.422Z,19.95
2019-04-06T01:15:42.603Z,18.57
2019-04-06T01:18:08.763Z,19.10
2019-04-06T01:20:34.947Z,19.32
2019-04-06T01:23:01.149Z,20.15
2019-04-06T01:25:27.317Z,20.08
2019-04-06T01:27:53.513Z,18.48
2019-04-06T01:30:19.886Z,18.40
2019-04-06T01:32:46.044Z,17.90
2019-04-06T01:35:12.192Z,18.80
2019-04-06T01:37:38.401Z,20.37
2019-04-06T01:40:05.310Z,20.77
2019-04-06T01:42:31.513Z,18.42
2019-04-06T01:44:59.537Z,20.08
2019-04-06T01:47:25.773Z,20.37
2019-04-06T01:49:51.987Z,21.00
2019-04-06T01:52:18.203Z,22.45
2019-04-06T01:54:44.505Z,21.65
2019-04-06T01:57:10.720Z,23.62
2019-04-06T01:59:36.916Z,23.57
2019-04-06T02:02:07.533Z,23.70
2019-04-06T02:04:33.785Z,22.73
2019-04-06T02:06:59.978Z,24.07
2019-04-06T02:09:26.145Z,22.30
2019-04-06T02:11:52.327Z,23.35
2019-04-06T02:14:18.490Z,22.25
2019-04-06T02:16:44.681Z,22.50
2019-04-06T02:19:10.904Z,21.12
2019-04-06T02:21:37.055Z,20.75
2019-04-06T02:24:03.315Z,21.02
2019-04-06T02:26:31.120Z,20.62
2019-04-06T02:28:57.576Z,20.02
2019-04-06T02:31:28.537Z,20.72
2019-04-06T02:34:11.642Z,20.77
2019-04-06T02:36:54.537Z,21.12
2019-04-06T02:39:25.117Z,21.30
2019-04-06T02:41:53.193Z,22.52
2019-04-06T02:44:19.433Z,21.60
2019-04-06T02:46:45.602Z,22.77
2019-04-06T02:49:11.789Z,21.60
2019-04-06T02:51:37.996Z,21.37
2019-04-06T02:54:04.167Z,20.50
2019-04-06T02:56:45.016Z,23.50
2019-04-06T02:58:58.408Z,22.07
2019-04-06T03:01:24.609Z,23.05
2019-04-06T03:03:50.768Z,21.57
2019-04-06T03:06:16.960Z,21.60
2019-04-06T03:08:43.157Z,19.92
2019-04-06T03:11:09.333Z,20.85
2019-04-06T03:13:35.554Z,20.32
2019-04-06T03:16:02.136Z,21.20
2019-04-06T03:18:28.495Z,20.48
2019-04-06T03:20:54.760Z,21.73
2019-04-06T03:23:24.282Z,21.27
2019-04-06T03:25:49.115Z,22.15
2019-04-06T03:28:15.310Z,21.68
2019-04-06T03:30:41.463Z,20.65
2019-04-06T03:33:07.632Z,22.67
2019-04-06T03:35:33.849Z,22.00
2019-04-06T03:38:00.013Z,20.55
2019-04-06T03:40:26.228Z,20.52
2019-04-06T03:42:52.407Z,20.97
2019-04-06T03:45:18.617Z,21.55
2019-04-06T03:47:44.909Z,21.12
2019-04-06T03:50:11.425Z,23.52
2019-04-06T03:52:40.606Z,22.05
2019-04-06T03:55:07.385Z,22.55
2019-04-06T03:57:33.684Z,24.40
2019-04-06T03:59:59.882Z,23.35
2019-04-06T04:02:26.268Z,22.65
2019-04-06T04:04:52.604Z,22.25
2019-04-06T04:07:19.092Z,21.30
2019-04-06T04:09:45.418Z,22.60
2019-04-06T04:12:11.630Z,22.20
2019-04-06T04:14:37.889Z,23.22
2019-04-06T04:17:04.053Z,22.62
2019-04-06T04:19:30.349Z,22.50
2019-04-06T04:21:56.519Z,21.87
2019-04-06T04:24:22.861Z,23.10
2019-04-06T04:26:49.070Z,22.62
2019-04-06T04:29:15.267Z,21.70
2019-04-06T04:31:41.421Z,24.00
2019-04-06T04:34:08.006Z,23.27
2019-04-06T04:36:34.171Z,22.80
2019-04-06T04:39:00.766Z,23.87
2019-04-06T04:41:26.955Z,23.47
2019-04-06T04:43:53.171Z,22.42
2019-04-06T04:46:19.362Z,22.73
2019-04-06T04:48:45.560Z,21.93
2019-04-06T04:51:11.835Z,23.83
2019-04-06T04:53:38.004Z,23.52
2019-04-06T04:56:04.286Z,22.02
2019-04-06T04:58:30.500Z,21.07
2019-04-06T05:00:56.660Z,22.65
2019-04-06T05:03:23.028Z,24.35
2019-04-06T05:05:49.188Z,23.42
2019-04-06T05:08:15.402Z,23.67
2019-04-06T05:10:42.740Z,25.45
2019-04-06T05:13:08.942Z,24.67
2019-04-06T05:15:54.085Z,24.15
2019-04-06T05:18:20.364Z,24.75
2019-04-06T05:20:47.140Z,22.50
2019-04-06T05:23:13.337Z,23.65
2019-04-06T05:25:39.514Z,21.97
2019-04-06T05:28:05.813Z,24.65
2019-04-06T05:30:32.028Z,22.60
2019-04-06T05:32:58.197Z,23.32
2019-04-06T05:35:24.608Z,24.07
2019-04-06T05:37:50.789Z,24.55
2019-04-06T05:40:16.941Z,25.32
2019-04-06T05:42:43.124Z,24.18
2019-04-06T05:45:09.668Z,24.80
2019-04-06T05:47:35.862Z,24.00
2019-04-06T05:50:04.660Z,24.50
2019-04-06T05:52:30.832Z,26.17
2019-04-06T05:54:57.327Z,26.30
2019-04-06T05:57:23.563Z,24.40
2019-04-06T05:59:49.725Z,25.20
2019-04-06T06:02:15.931Z,25.60
2019-04-06T06:04:42.223Z,25.35
2019-04-06T06:07:08.563Z,25.30
2019-04-06T06:09:34.840Z,27.13
2019-04-06T06:12:01.043Z,24.15
2019-04-06T06:14:27.228Z,24.92
2019-04-06T06:16:53.498Z,24.12
2019-04-06T06:19:19.669Z,23.30
2019-04-06T06:21:45.870Z,24.87
2019-04-06T06:24:12.068Z,24.85
2019-04-06T06:26:38.232Z,25.15
2019-04-06T06:29:04.659Z,24.87
2019-04-06T06:31:30.954Z,23.73
2019-04-06T06:33:57.543Z,26.60
2019-04-06T06:36:23.972Z,26.00
2019-04-06T06:38:50.187Z,25.82
2019-04-06T06:41:16.523Z,25.92
2019-04-06T06:43:45.047Z,25.70
2019-04-06T06:46:10.818Z,25.57
2019-04-06T06:48:36.990Z,28.32
2019-04-06T06:51:03.462Z,27.20
2019-04-06T06:53:29.639Z,27.30
2019-04-06T06:55:55.865Z,26.25
2019-04-06T06:58:25.726Z,28.90
2019-04-06T07:00:50.182Z,28.92
2019-04-06T07:03:16.354Z,28.92
2019-04-06T07:05:42.560Z,29.92
2019-04-06T07:08:08.757Z,28.75
2019-04-06T07:10:34.963Z,29.60
2019-04-06T07:13:01.141Z,29.72
2019-04-06T07:15:27.367Z,28.55
2019-04-06T07:17:53.552Z,27.82
2019-04-06T07:20:19.736Z,29.85
2019-04-06T07:22:45.941Z,28.73
2019-04-06T07:25:12.614Z,30.55
2019-04-06T07:27:39.027Z,29.87
2019-04-06T07:30:05.972Z,30.95
2019-04-06T07:32:32.181Z,32.00
2019-04-06T07:34:58.400Z,29.37
2019-04-06T07:37:24.574Z,30.80
2019-04-06T07:39:50.735Z,30.90
2019-04-06T07:42:16.924Z,30.35
2019-04-06T07:44:43.181Z,30.80
2019-04-06T07:47:09.415Z,31.02
2019-04-06T07:49:35.667Z,30.08
2019-04-06T07:52:01.873Z,30.75
2019-04-06T07:54:28.141Z,32.70
2019-04-06T07:56:54.383Z,31.20
2019-04-06T07:59:20.551Z,29.98
2019-04-06T08:01:48.543Z,32.55
2019-04-06T08:04:14.861Z,31.80
2019-04-06T08:06:41.109Z,32.50
2019-04-06T08:09:07.394Z,31.70
2019-04-06T08:11:33.569Z,34.35
2019-04-06T08:13:59.743Z,34.58
2019-04-06T08:16:26.008Z,31.55
2019-04-06T08:18:52.403Z,34.65
2019-04-06T08:21:19.736Z,32.85
2019-04-06T08:23:46.147Z,31.65
2019-04-06T08:26:12.308Z,33.75
2019-04-06T08:28:38.500Z,31.70
2019-04-06T08:31:04.694Z,32.80
2019-04-06T08:33:30.912Z,35.58
2019-04-06T08:35:57.178Z,33.20
2019-04-06T08:38:23.528Z,33.73
2019-04-06T08:40:49.730Z,33.73
2019-04-06T08:43:15.974Z,32.85
2019-04-06T08:45:42.179Z,33.83
2019-04-06T08:48:08.356Z,34.50
2019-04-06T08:50:34.768Z,34.55
2019-04-06T08:53:00.956Z,32.58
2019-04-06T08:55:27.216Z,30.92
2019-04-06T08:57:53.617Z,32.60
2019-04-06T09:00:20.286Z,29.60
2019-04-06T09:02:46.505Z,29.45
2019-04-06T09:05:13.028Z,31.30
2019-04-06T09:07:40.759Z,31.95
2019-04-06T09:10:09.090Z,31.95
2019-04-06T09:12:36.293Z,33.50
2019-04-06T09:15:05.583Z,32.67
2019-04-06T09:17:31.911Z,31.73
2019-04-06T09:19:58.237Z,32.73
2019-04-06T09:22:24.430Z,32.17
2019-04-06T09:24:50.664Z,32.17
2019-04-06T09:27:16.959Z,30.20
2019-04-06T09:29:43.132Z,29.35
2019-04-06T09:32:09.594Z,28.02
2019-04-06T09:34:35.908Z,28.75
2019-04-06T09:37:02.096Z,28.95
2019-04-06T09:39:28.258Z,31.27
2019-04-06T09:41:54.661Z,29.05
2019-04-06T09:44:26.076Z,27.77
2019-04-06T09:46:59.779Z,27.70
2019-04-06T09:49:27.844Z,28.60
2019-04-06T09:52:12.255Z,28.32
2019-04-06T09:54:40.353Z,28.38
2019-04-06T09:57:08.489Z,28.85
2019-04-06T09:59:48.000Z,28.15
2019-04-06T10:02:21.252Z,26.35
2019-04-06T10:04:58.104Z,25.65
2019-04-06T10:07:37.993Z,26.02
2019-04-06T10:10:12.768Z,27.00
2019-04-06T10:12:49.403Z,25.72
2019-04-06T10:15:17.656Z,24.92
2019-04-06T10:18:04.060Z,25.12
2019-04-06T10:20:37.882Z,26.97
2019-04-06T10:23:08.737Z,23.30
2019-04-06T10:25:48.727Z,25.77
2019-04-06T10:28:25.382Z,25.70
2019-04-06T10:31:11.425Z,25.35
2019-04-06T10:33:39.580Z,23.40
2019-04-06T10:36:10.442Z,24.23
2019-04-06T10:38:38.656Z,23.35
2019-04-06T10:41:18.897Z,25.27
2019-04-06T10:44:03.789Z,22.85
2019-04-06T10:46:48.707Z,24.20
2019-04-06T10:49:16.875Z,23.65
2019-04-06T10:51:53.751Z,24.85
2019-04-06T10:54:36.784Z,22.95
2019-04-06T10:57:04.894Z,23.42
2019-04-06T10:59:38.793Z,21.50
2019-04-06T11:02:23.272Z,23.60
2019-04-06T11:04:51.735Z,25.60
2019-04-06T11:07:31.623Z,26.73
2019-04-06T11:10:08.234Z,26.42
2019-04-06T11:12:38.928Z,24.20
2019-04-06T11:15:10.083Z,23.27
2019-04-06T11:17:54.454Z,22.90
2019-04-06T11:20:22.560Z,23.77
2019-04-06T11:22:56.251Z,22.50
2019-04-06T11:25:35.941Z,20.62
2019-04-06T11:28:15.672Z,23.65
2019-04-06T11:30:49.577Z,22.93
2019-04-06T11:33:26.760Z,24.57
2019-04-06T11:36:00.634Z,23.22
2019-04-06T11:38:51.810Z,22.05
2019-04-06T11:41:28.836Z,22.07
2019-04-06T11:43:58.204Z,23.70
2019-04-06T11:46:29.093Z,24.18
2019-04-06T11:49:03.226Z,22.58
2019-04-06T11:51:31.316Z,23.22
2019-04-06T11:53:59.385Z,20.88
2019-04-06T11:56:33.166Z,20.50
2019-04-06T11:59:01.420Z,20.43
2019-04-06T12:01:31.296Z,21.05
2019-04-06T12:04:03.998Z,22.15
2019-04-06T12:06:48.035Z,21.42
2019-04-06T12:09:31.517Z,19.25
2019-04-06T12:12:08.521Z,23.15
2019-04-06T12:14:51.556Z,21.20
2019-04-06T12:17:33.301Z,21.60
2019-04-06T12:20:13.808Z,21.60
2019-04-06T12:22:51.323Z,21.05
2019-04-06T12:25:35.838Z,19.05
2019-04-06T12:28:12.661Z,18.77
2019-04-06T12:30:43.677Z,20.20
2019-04-06T12:33:14.934Z,19.52
2019-04-06T12:35:43.148Z,18.70
2019-04-06T12:38:11.202Z,19.32
2019-04-06T12:40:56.311Z,18.15
2019-04-06T12:43:42.450Z,18.52
2019-04-06T12:46:27.236Z,19.30
2019-04-06T12:48:56.681Z,18.95
2019-04-06T12:51:36.756Z,17.73
2019-04-06T12:54:18.676Z,16.85
2019-04-06T12:56:49.412Z,17.42
2019-04-06T12:59:35.642Z,17.60
2019-04-06T13:02:20.274Z,16.77
2019-04-06T13:05:05.107Z,17.50
2019-04-06T13:07:36.341Z,16.97
2019-04-06T13:10:15.776Z,17.00
2019-04-06T13:13:00.273Z,15.30
2019-04-06T13:15:34.224Z,14.90
2019-04-06T13:18:08.001Z,14.25
2019-04-06T13:20:52.692Z,14.07
2019-04-06T13:23:22.008Z,12.47
2019-04-06T13:26:06.608Z,11.63
2019-04-06T13:28:34.703Z,11.08
2019-04-06T13:31:19.222Z,9.58
2019-04-06T13:33:50.344Z,11.40
2019-04-06T13:36:35.077Z,10.50
2019-04-06T13:39:09.128Z,9.23
2019-04-06T13:41:52.192Z,9.90
2019-04-06T13:44:26.070Z,10.78
2019-04-06T13:47:04.102Z,11.43
2019-04-06T13:49:35.307Z,11.25
2019-04-06T13:52:18.626Z,9.40
2019-04-06T13:55:03.172Z,10.20
2019-04-06T13:57:31.353Z,10.20
2019-04-06T14:00:16.538Z,10.28
2019-04-06T14:02:56.792Z,10.90
2019-04-06T14:05:24.963Z,10.58
2019-04-06T14:08:09.669Z,8.63
2019-04-06T14:10:54.322Z,8.00
2019-04-06T14:13:22.482Z,8.85
2019-04-06T14:15:50.554Z,8.65
2019-04-06T14:18:18.709Z,9.18
2019-04-06T14:20:52.712Z,10.60
2019-04-06T14:23:21.157Z,9.88
2019-04-06T14:25:50.051Z,9.90
2019-04-06T14:28:24.203Z,10.50
2019-04-06T14:30:53.489Z,10.00
2019-04-06T14:33:27.561Z,9.43
2019-04-06T14:36:01.413Z,10.08
2019-04-06T14:38:32.517Z,9.95
2019-04-06T14:41:12.561Z,9.95
2019-04-06T14:43:46.704Z,9.68
2019-04-06T14:46:17.453Z,9.00
2019-04-06T14:48:48.831Z,9.48
2019-04-06T14:51:17.386Z,8.20
2019-04-06T14:53:45.452Z,9.43
2019-04-06T14:56:30.240Z,9.50
2019-04-06T14:58:58.320Z,8.38
2019-04-06T15:01:45.278Z,8.15
2019-04-06T15:04:05.888Z,7.90
2019-04-06T15:06:39.642Z,8.58
2019-04-06T15:09:25.953Z,8.65
2019-04-06T15:11:54.066Z,8.83
2019-04-06T15:14:37.270Z,9.13
2019-04-06T15:17:05.350Z,8.78
2019-04-06T15:19:50.484Z,9.05
2019-04-06T15:22:18.604Z,10.58
2019-04-06T15:24:55.646Z,9.75
2019-04-06T15:27:29.422Z,9.40
2019-04-06T15:30:00.356Z,9.10
2019-04-06T15:32:34.736Z,8.95
2019-04-06T15:35:03.109Z,9.50
2019-04-06T15:37:34.252Z,9.35
2019-04-06T15:40:11.284Z,7.87
2019-04-06T15:42:39.385Z,7.17
2019-04-06T15:45:19.751Z,7.42
2019-04-06T15:48:04.178Z,8.55
2019-04-06T15:50:43.992Z,7.12
2019-04-06T15:53:20.776Z,7.33
2019-04-06T15:55:52.047Z,7.28
2019-04-06T15:58:31.976Z,6.83
2019-04-06T16:01:17.264Z,6.83
2019-04-06T16:03:48.442Z,6.30
2019-04-06T16:06:32.793Z,6.55
2019-04-06T16:09:17.236Z,6.17
2019-04-06T16:11:45.304Z,6.05
2019-04-06T16:14:16.563Z,5.50
2019-04-06T16:16:47.553Z,5.67
2019-04-06T16:19:18.873Z,5.53
2019-04-06T16:22:05.591Z,5.35
2019-04-06T16:24:33.798Z,5.70
2019-04-06T16:27:01.887Z,5.30
2019-04-06T16:29:30.388Z,5.80
2019-04-06T16:32:13.993Z,5.83
2019-04-06T16:34:42.286Z,5.12
2019-04-06T16:37:16.032Z,4.70
2019-04-06T16:39:46.857Z,4.92
2019-04-06T16:42:23.733Z,4.70
2019-04-06T16:44:51.800Z,5.17
2019-04-06T16:47:19.888Z,5.70
2019-04-06T16:49:53.988Z,5.70
2019-04-06T16:52:30.849Z,4.85
2019-04-06T16:55:10.976Z,4.45
2019-04-06T16:57:42.551Z,7.15
2019-04-06T17:00:19.587Z,8.35
2019-04-06T17:02:46.814Z,5.30
2019-04-06T17:05:20.834Z,18.02
2019-04-06T17:07:48.905Z,8.68
2019-04-06T17:10:33.746Z,8.28
2019-04-06T17:13:01.856Z,8.00
2019-04-06T17:15:48.063Z,6.92
2019-04-06T17:18:16.230Z,6.85
2019-04-06T17:20:53.068Z,8.53
2019-04-06T17:23:21.182Z,5.10
2019-04-06T17:25:49.278Z,5.50
2019-04-06T17:28:26.359Z,5.65
2019-04-06T17:30:54.481Z,5.83
2019-04-06T17:33:22.640Z,6.00
2019-04-06T17:35:50.759Z,6.30
2019-04-06T17:38:21.332Z,6.30
2019-04-06T17:40:55.892Z,6.03
2019-04-06T17:43:40.419Z,6.35
2019-04-06T17:46:26.625Z,6.22
2019-04-06T17:49:11.420Z,5.60
2019-04-06T17:51:39.587Z,5.85
2019-04-06T17:54:24.379Z,5.58
2019-04-06T17:56:55.606Z,6.10
2019-04-06T17:59:26.796Z,6.30
2019-04-06T18:02:11.426Z,5.45
2019-04-06T18:04:42.254Z,5.42
2019-04-06T18:07:10.425Z,6.17
2019-04-06T18:09:44.761Z,5.30
2019-04-06T18:12:20.012Z,5.03
2019-04-06T18:14:46.235Z,5.78
2019-04-06T18:17:15.997Z,5.65
2019-04-06T18:19:43.813Z,6.35
2019-04-06T18:22:10.480Z,6.25
2019-04-06T18:24:36.807Z,5.85
2019-04-06T18:27:03.217Z,7.12
2019-04-06T18:29:30.841Z,6.80
2019-04-06T18:32:14.176Z,6.03
2019-04-06T18:34:40.348Z,6.37
2019-04-06T18:37:08.418Z,5.45
2019-04-06T18:39:34.598Z,5.35
2019-04-06T18:42:01.966Z,5.17
2019-04-06T18:44:28.145Z,5.08
2019-04-06T18:46:54.368Z,4.92
2019-04-06T18:49:20.847Z,5.05
2019-04-06T18:51:47.079Z,5.78
2019-04-06T18:54:13.281Z,5.30
2019-04-06T18:56:39.470Z,4.83
2019-04-06T18:59:06.133Z,4.78
2019-04-06T19:01:33.676Z,4.62
2019-04-06T19:04:01.078Z,4.83
2019-04-06T19:06:27.285Z,5.15
2019-04-06T19:08:53.527Z,5.05
2019-04-06T19:11:19.872Z,4.55
2019-04-06T19:13:46.504Z,4.83
2019-04-06T19:16:12.798Z,4.60
2019-04-06T19:18:41.028Z,4.70
2019-04-06T19:21:07.340Z,4.72
2019-04-06T19:23:33.564Z,4.67
2019-04-06T19:26:00.187Z,4.80
2019-04-06T19:28:26.572Z,5.00
2019-04-06T19:30:52.804Z,4.58
2019-04-06T19:33:25.171Z,4.65
2019-04-06T19:35:47.240Z,4.97
2019-04-06T19:38:13.463Z,5.05
2019-04-06T19:40:40.832Z,5.03
2019-04-06T19:43:07.693Z,5.08
2019-04-06T19:45:33.973Z,5.35
2019-04-06T19:48:00.237Z,5.25
2019-04-06T19:50:27.432Z,5.22
2019-04-06T19:52:53.621Z,4.72
2019-04-06T19:55:20.296Z,5.08
2019-04-06T19:57:47.064Z,4.65
2019-04-06T20:00:15.047Z,4.62
2019-04-06T20:02:41.897Z,4.70
2019-04-06T20:05:08.530Z,4.92
2019-04-06T20:07:34.715Z,5.17
2019-04-06T20:10:01.226Z,4.58
2019-04-06T20:12:27.543Z,4.67
2019-04-06T20:14:53.917Z,4.30
2019-04-06T20:17:20.097Z,4.25
2019-04-06T20:19:48.200Z,4.53
2019-04-06T20:22:14.854Z,4.65
2019-04-06T20:24:41.177Z,4.60
2019-04-06T20:27:07.399Z,4.72
2019-04-06T20:29:34.123Z,4.55
2019-04-06T20:32:01.458Z,4.12
2019-04-06T20:34:28.226Z,4.20
2019-04-06T20:36:54.396Z,4.33
2019-04-06T20:39:20.600Z,4.72
2019-04-06T20:41:46.773Z,3.72
2019-04-06T20:44:13.080Z,4.47
2019-04-06T20:46:41.212Z,4.53
2019-04-06T20:49:07.665Z,4.25
2019-04-06T20:51:34.370Z,4.37
2019-04-06T20:54:00.951Z,4.22
2019-04-06T20:56:27.251Z,4.30
2019-04-06T20:58:53.468Z,4.45
2019-04-06T21:01:19.645Z,4.17
2019-04-06T21:03:45.800Z,4.45
2019-04-06T21:06:12.211Z,3.72
2019-04-06T21:08:39.000Z,4.00
2019-04-06T21:11:05.569Z,4.25
2019-04-06T21:13:31.736Z,4.03
2019-04-06T21:15:57.926Z,3.92
2019-04-06T21:18:24.356Z,4.22
2019-04-06T21:20:50.822Z,4.22
2019-04-06T21:23:17.214Z,4.20
2019-04-06T21:25:43.516Z,4.60
2019-04-06T21:28:10.033Z,4.30
2019-04-06T21:30:36.787Z,4.28
2019-04-06T21:33:03.341Z,4.20
2019-04-06T21:35:30.100Z,4.05
2019-04-06T21:37:56.285Z,4.05
2019-04-06T21:40:22.525Z,4.28
2019-04-06T21:42:48.732Z,4.22
2019-04-06T21:45:15.268Z,4.15
2019-04-06T21:47:41.590Z,3.75
2019-04-06T21:50:08.090Z,3.83
2019-04-06T21:52:35.267Z,3.83
2019-04-06T21:55:02.439Z,4.15
2019-04-06T21:57:28.696Z,3.67
2019-04-06T21:59:55.134Z,3.52
2019-04-06T22:02:21.751Z,3.70
2019-04-06T22:04:48.403Z,3.70
2019-04-06T22:07:14.675Z,3.35
2019-04-06T22:09:41.276Z,3.58
2019-04-06T22:12:08.210Z,3.40
2019-04-06T22:14:34.774Z,3.52
2019-04-06T22:17:02.718Z,3.20
2019-04-06T22:19:29.030Z,3.10
2019-04-06T22:21:55.465Z,3.62
2019-04-06T22:24:21.744Z,3.12
2019-04-06T22:26:47.930Z,3.27
2019-04-06T22:29:14.116Z,3.60
2019-04-06T22:31:40.280Z,3.20
2019-04-06T22:34:06.865Z,3.08
2019-04-06T22:36:33.248Z,3.22
2019-04-06T22:38:59.480Z,2.98
2019-04-06T22:41:26.272Z,3.00
2019-04-06T22:43:53.435Z,3.10
2019-04-06T22:46:20.171Z,2.80
2019-04-06T22:48:46.890Z,2.92
2019-04-06T22:51:13.872Z,3.22
2019-04-06T22:53:41.115Z,3.17
2019-04-06T22:56:07.273Z,2.72
2019-04-06T22:58:33.459Z,2.60
2019-04-06T23:01:07.866Z,3.20
2019-04-06T23:03:47.823Z,2.90
2019-04-06T23:06:16.331Z,2.87
2019-04-06T23:08:42.591Z,2.87
2019-04-06T23:11:09.046Z,3.08
2019-04-06T23:13:35.224Z,2.85
2019-04-06T23:16:01.407Z,3.22
2019-04-06T23:18:27.624Z,2.72
2019-04-06T23:20:53.922Z,2.95
2019-04-06T23:23:20.142Z,2.90
2019-04-06T23:25:46.494Z,2.98
2019-04-06T23:28:12.923Z,2.92
2019-04-06T23:30:39.712Z,3.10
2019-04-06T23:33:05.984Z,3.37
2019-04-06T23:35:32.946Z,2.77
2019-04-06T23:37:59.159Z,2.90
2019-04-06T23:40:25.939Z,2.85
2019-04-06T23:42:52.600Z,2.95
2019-04-06T23:45:18.873Z,3.02
2019-04-06T23:47:45.483Z,2.92
2019-04-06T23:50:12.308Z,2.80
2019-04-06T23:52:38.505Z,3.58
2019-04-06T23:55:06.653Z,3.17
2019-04-06T23:57:32.852Z,2.80
2019-04-06T23:59:59.321Z,3.00
